createdAt,value
2019-02-26T00:00:34.376Z,63.70
2019-02-26T00:03:04.640Z,63.70
2019-02-26T00:05:33.042Z,63.90
2019-02-26T00:08:02.675Z,63.80
2019-02-26T00:10:32.127Z,63.90
2019-02-26T00:13:01.168Z,64.00
2019-02-26T00:15:33.345Z,64.00
2019-02-26T00:17:59.580Z,64.00
2019-02-26T00:20:29.684Z,64.20
2019-02-26T00:22:59.710Z,64.20
2019-02-26T00:25:28.123Z,64.30
2019-02-26T00:27:58.510Z,64.40
2019-02-26T00:30:26.570Z,64.40
2019-02-26T00:32:55.373Z,64.60
2019-02-26T00:35:25.740Z,64.60
2019-02-26T00:37:55.685Z,64.70
2019-02-26T00:40:24.225Z,64.70
2019-02-26T00:42:54.602Z,64.70
2019-02-26T00:45:26.856Z,64.80
2019-02-26T00:47:52.688Z,65.00
2019-02-26T00:50:21.070Z,65.10
2019-02-26T00:52:49.513Z,65.00
2019-02-26T00:55:18.548Z,65.10
2019-02-26T00:57:46.954Z,65.20
2019-02-26T01:00:16.272Z,65.20
2019-02-26T01:02:44.663Z,65.20
2019-02-26T01:05:15.706Z,65.20
2019-02-26T01:07:46.698Z,65.30
2019-02-26T01:10:16.446Z,65.30
2019-02-26T01:12:44.646Z,65.40
2019-02-26T01:15:17.553Z,65.40
2019-02-26T01:17:46.119Z,65.50
2019-02-26T01:20:19.715Z,65.50
2019-02-26T01:22:48.364Z,65.60
2019-02-26T01:25:18.510Z,65.70
2019-02-26T01:27:48.197Z,65.70
2019-02-26T01:30:20.773Z,65.90
2019-02-26T01:32:47.000Z,65.90
2019-02-26T01:35:15.524Z,66.00
2019-02-26T01:37:43.934Z,65.90
2019-02-26T01:40:15.818Z,66.00
2019-02-26T01:42:47.231Z,66.10
2019-02-26T01:45:13.733Z,66.10
2019-02-26T01:47:42.915Z,66.20
2019-02-26T01:50:13.538Z,66.30
2019-02-26T01:52:42.908Z,66.40
2019-02-26T01:55:11.760Z,66.40
2019-02-26T01:57:42.662Z,66.40
2019-02-26T02:00:19.358Z,66.40
2019-02-26T02:02:47.735Z,66.60
2019-02-26T02:05:16.151Z,66.60
2019-02-26T02:07:46.765Z,66.60
2019-02-26T02:10:15.679Z,66.70
2019-02-26T02:12:44.156Z,66.80
2019-02-26T02:15:17.406Z,66.80
2019-02-26T02:17:45.003Z,66.80
2019-02-26T02:20:16.421Z,66.80
2019-02-26T02:22:45.739Z,66.90
2019-02-26T02:25:14.198Z,67.00
2019-02-26T02:27:42.693Z,67.10
2019-02-26T02:30:18.568Z,67.20
2019-02-26T02:32:43.757Z,67.20
2019-02-26T02:35:13.536Z,67.30
2019-02-26T02:37:42.500Z,67.30
2019-02-26T02:40:12.992Z,67.40
2019-02-26T02:42:43.163Z,67.30
2019-02-26T02:45:14.397Z,67.30
2019-02-26T02:47:42.405Z,67.40
2019-02-26T02:50:18.197Z,67.40
2019-02-26T02:52:45.236Z,67.50
2019-02-26T02:55:16.329Z,67.50
2019-02-26T02:57:43.721Z,67.60
2019-02-26T03:00:16.623Z,67.60
2019-02-26T03:02:46.755Z,67.70
2019-02-26T03:05:15.241Z,67.70
2019-02-26T03:07:46.073Z,67.80
2019-02-26T03:10:15.603Z,67.80
2019-02-26T03:12:47.766Z,67.80
2019-02-26T03:15:15.578Z,67.90
2019-02-26T03:17:43.986Z,68.00
2019-02-26T03:20:13.543Z,68.00
2019-02-26T03:22:45.549Z,68.00
2019-02-26T03:25:17.470Z,68.00
2019-02-26T03:27:46.356Z,68.10
2019-02-26T03:30:26.440Z,68.20
2019-02-26T03:32:52.184Z,68.20
2019-02-26T03:35:22.230Z,68.30
2019-02-26T03:37:51.704Z,68.30
2019-02-26T03:40:20.816Z,68.30
2019-02-26T03:42:49.581Z,69.10
2019-02-26T03:45:23.704Z,68.30
2019-02-26T03:47:48.141Z,68.30
2019-02-26T03:50:16.902Z,68.50
2019-02-26T03:52:45.352Z,68.60
2019-02-26T03:55:15.402Z,68.60
2019-02-26T03:57:47.350Z,68.50
2019-02-26T04:00:17.393Z,68.60
2019-02-26T04:02:48.368Z,68.60
2019-02-26T04:05:15.855Z,68.70
2019-02-26T04:07:44.251Z,68.70
2019-02-26T04:10:13.089Z,68.70
2019-02-26T04:12:42.254Z,68.80
2019-02-26T04:15:14.013Z,68.80
2019-02-26T04:17:42.392Z,69.00
2019-02-26T04:20:12.013Z,68.90
2019-02-26T04:22:42.902Z,69.00
2019-02-26T04:25:16.443Z,69.00
2019-02-26T04:27:59.042Z,69.00
2019-02-26T04:30:56.842Z,69.00
2019-02-26T04:33:58.925Z,69.10
2019-02-26T04:36:30.143Z,69.10
2019-02-26T04:39:19.022Z,69.10
2019-02-26T04:42:16.823Z,69.10
2019-02-26T04:45:09.504Z,69.10
2019-02-26T04:47:49.509Z,69.20
2019-02-26T04:50:17.150Z,69.20
2019-02-26T04:52:45.558Z,69.20
2019-02-26T04:55:13.966Z,69.20
2019-02-26T04:57:45.373Z,69.20
2019-02-26T05:00:12.449Z,69.30
2019-02-26T05:02:40.867Z,69.20
2019-02-26T05:05:09.265Z,69.40
2019-02-26T05:07:38.516Z,69.40
2019-02-26T05:10:08.477Z,69.40
2019-02-26T05:12:39.983Z,69.40
2019-02-26T05:15:11.544Z,69.60
2019-02-26T05:17:37.509Z,69.60
2019-02-26T05:20:09.592Z,69.60
2019-02-26T05:22:36.542Z,69.60
2019-02-26T05:25:07.433Z,69.70
2019-02-26T05:27:38.920Z,69.70
2019-02-26T05:30:09.940Z,69.70
2019-02-26T05:32:39.059Z,69.70
2019-02-26T05:35:07.470Z,69.80
2019-02-26T05:37:38.175Z,69.80
2019-02-26T05:40:09.523Z,69.80
2019-02-26T05:42:36.737Z,69.80
2019-02-26T05:45:08.973Z,69.80
2019-02-26T05:47:36.001Z,69.90
2019-02-26T05:50:12.971Z,70.00
2019-02-26T05:52:37.079Z,70.00
2019-02-26T05:55:05.514Z,70.10
2019-02-26T05:57:34.219Z,70.10
2019-02-26T06:00:02.983Z,70.10
2019-02-26T06:02:31.368Z,70.20
2019-02-26T06:04:59.761Z,70.20
2019-02-26T06:07:31.291Z,70.20
2019-02-26T06:09:59.216Z,70.30
2019-02-26T06:12:27.964Z,70.30
2019-02-26T06:15:00.308Z,70.30
2019-02-26T06:17:26.729Z,70.40
2019-02-26T06:19:59.357Z,70.40
2019-02-26T06:22:29.228Z,70.40
2019-02-26T06:24:59.606Z,70.40
2019-02-26T06:27:27.520Z,70.50
2019-02-26T06:29:58.186Z,70.50
2019-02-26T06:32:29.981Z,70.70
2019-02-26T06:34:56.464Z,70.60
2019-02-26T06:37:24.851Z,70.60
2019-02-26T06:39:55.609Z,70.70
2019-02-26T06:42:23.336Z,70.70
2019-02-26T06:44:52.052Z,70.80
2019-02-26T06:47:21.140Z,70.80
2019-02-26T06:49:52.567Z,70.80
2019-02-26T06:52:20.681Z,70.80
2019-02-26T06:54:54.834Z,70.80
2019-02-26T06:57:19.118Z,71.00
2019-02-26T06:59:47.536Z,70.80
2019-02-26T07:02:16.217Z,70.90
2019-02-26T07:04:44.619Z,70.90
2019-02-26T07:07:14.473Z,70.80
2019-02-26T07:09:43.928Z,71.00
2019-02-26T07:12:14.446Z,70.90
2019-02-26T07:14:42.460Z,70.90
2019-02-26T07:17:10.861Z,70.90
2019-02-26T07:19:39.248Z,71.00
2019-02-26T07:22:10.908Z,70.80
2019-02-26T07:24:38.739Z,70.80
2019-02-26T07:27:09.005Z,70.80
2019-02-26T07:29:40.008Z,70.80
2019-02-26T07:32:07.267Z,70.80
2019-02-26T07:34:35.686Z,71.60
2019-02-26T07:37:06.400Z,70.70
2019-02-26T07:39:34.705Z,70.80
2019-02-26T07:42:03.084Z,70.60
2019-02-26T07:44:31.570Z,70.60
2019-02-26T07:47:00.897Z,70.60
2019-02-26T07:49:30.062Z,70.60
2019-02-26T07:52:00.356Z,70.60
2019-02-26T07:54:28.995Z,71.40
2019-02-26T07:56:59.563Z,70.50
2019-02-26T07:59:28.013Z,70.20
2019-02-26T08:01:57.523Z,69.70
2019-02-26T08:04:25.942Z,69.40
2019-02-26T08:06:56.842Z,69.20
2019-02-26T08:09:24.467Z,69.10
2019-02-26T08:11:52.870Z,68.90
2019-02-26T08:14:23.193Z,68.60
2019-02-26T08:16:53.567Z,68.70
2019-02-26T08:19:21.404Z,68.40
2019-02-26T08:21:50.342Z,68.20
2019-02-26T08:24:23.838Z,68.00
2019-02-26T08:26:49.871Z,67.80
2019-02-26T08:29:18.260Z,67.60
2019-02-26T08:31:47.463Z,67.40
2019-02-26T08:34:16.710Z,67.20
2019-02-26T08:36:46.800Z,67.10
2019-02-26T08:39:15.890Z,66.90
2019-02-26T08:41:56.158Z,66.80
2019-02-26T08:44:24.571Z,66.60
2019-02-26T08:46:52.979Z,66.30
2019-02-26T08:49:22.550Z,66.20
2019-02-26T08:51:50.985Z,66.10
2019-02-26T08:54:21.227Z,65.90
2019-02-26T08:56:49.445Z,65.70
2019-02-26T08:59:20.046Z,65.40
2019-02-26T09:01:48.187Z,65.30
2019-02-26T09:04:17.474Z,65.10
2019-02-26T09:06:46.656Z,64.90
2019-02-26T09:09:15.366Z,64.70
2019-02-26T09:11:44.065Z,64.50
2019-02-26T09:14:14.153Z,64.30
2019-02-26T09:16:42.558Z,64.00
2019-02-26T09:19:11.297Z,63.80
2019-02-26T09:21:42.521Z,64.40
2019-02-26T09:24:09.794Z,63.40
2019-02-26T09:26:38.198Z,63.20
2019-02-26T09:29:06.612Z,63.00
2019-02-26T09:31:35.029Z,62.80
2019-02-26T09:34:03.443Z,62.60
2019-02-26T09:36:31.823Z,62.30
2019-02-26T09:39:00.234Z,62.00
2019-02-26T09:41:28.646Z,61.70
2019-02-26T09:43:59.359Z,61.40
2019-02-26T09:46:27.513Z,61.20
2019-02-26T09:48:57.435Z,60.90
2019-02-26T09:51:25.954Z,60.70
2019-02-26T09:53:56.453Z,60.50
2019-02-26T09:56:24.405Z,60.20
2019-02-26T09:58:52.802Z,59.90
2019-02-26T10:01:21.183Z,59.70
2019-02-26T10:03:49.619Z,59.50
2019-02-26T10:06:19.256Z,59.30
2019-02-26T10:08:48.946Z,59.10
2019-02-26T10:11:18.874Z,58.80
2019-02-26T10:13:49.376Z,59.20
2019-02-26T10:16:18.189Z,58.30
2019-02-26T10:18:47.406Z,58.00
2019-02-26T10:21:18.263Z,57.80
2019-02-26T10:23:49.275Z,57.60
2019-02-26T10:26:17.068Z,57.40
2019-02-26T10:28:50.948Z,57.10
2019-02-26T10:31:15.795Z,56.80
2019-02-26T10:33:46.347Z,56.60
2019-02-26T10:36:16.531Z,56.30
2019-02-26T10:38:44.307Z,56.00
2019-02-26T10:41:12.692Z,55.70
2019-02-26T10:43:41.585Z,55.40
2019-02-26T10:46:09.997Z,55.10
2019-02-26T10:48:38.414Z,54.90
2019-02-26T10:51:07.318Z,54.50
2019-02-26T10:53:35.673Z,54.30
2019-02-26T10:56:04.069Z,54.00
2019-02-26T10:58:32.445Z,53.80
2019-02-26T11:01:02.467Z,53.60
2019-02-26T11:03:35.326Z,53.30
2019-02-26T11:06:00.977Z,53.10
2019-02-26T11:08:31.810Z,52.70
2019-02-26T11:10:59.676Z,52.60
2019-02-26T11:13:28.080Z,52.40
2019-02-26T11:15:59.008Z,52.20
2019-02-26T11:18:26.507Z,51.90
2019-02-26T11:20:56.013Z,51.60
2019-02-26T11:23:30.957Z,51.40
2019-02-26T11:25:55.307Z,51.10
2019-02-26T11:28:27.253Z,51.00
2019-02-26T11:30:54.973Z,50.70
2019-02-26T11:33:24.195Z,50.40
2019-02-26T11:35:53.525Z,50.00
2019-02-26T11:38:22.320Z,50.00
2019-02-26T11:40:50.836Z,49.80
2019-02-26T11:43:20.911Z,49.70
2019-02-26T11:45:49.563Z,49.40
2019-02-26T11:48:17.994Z,49.10
2019-02-26T11:50:46.424Z,48.80
2019-02-26T11:53:14.799Z,48.60
2019-02-26T11:55:43.202Z,48.30
2019-02-26T11:58:15.398Z,48.00
2019-02-26T12:00:50.677Z,47.80
2019-02-26T12:03:22.889Z,47.50
2019-02-26T12:05:49.335Z,47.10
2019-02-26T12:08:21.863Z,47.00
2019-02-26T12:10:47.773Z,46.60
2019-02-26T12:13:17.107Z,46.30
2019-02-26T12:15:46.471Z,46.10
2019-02-26T12:18:16.867Z,45.90
2019-02-26T12:20:48.025Z,45.70
2019-02-26T12:23:16.151Z,45.40
2019-02-26T12:25:44.987Z,45.20
2019-02-26T12:28:13.778Z,45.00
2019-02-26T12:30:44.749Z,44.80
2019-02-26T12:33:14.346Z,44.50
2019-02-26T12:35:43.709Z,44.20
2019-02-26T12:38:18.213Z,43.80
2019-02-26T12:40:46.395Z,43.40
2019-02-26T12:43:15.621Z,43.20
2019-02-26T12:45:42.597Z,42.90
2019-02-26T12:48:15.617Z,42.60
2019-02-26T12:50:41.047Z,42.10
2019-02-26T12:53:12.504Z,41.90
2019-02-26T12:55:42.275Z,41.60
2019-02-26T12:58:14.320Z,41.10
2019-02-26T13:00:42.108Z,40.60
2019-02-26T13:03:12.805Z,40.20
2019-02-26T13:05:42.257Z,39.90
2019-02-26T13:08:13.471Z,39.30
2019-02-26T13:10:42.290Z,38.80
2019-02-26T13:13:10.935Z,38.20
2019-02-26T13:15:39.534Z,37.50
2019-02-26T13:18:07.937Z,36.90
2019-02-26T13:20:36.327Z,36.00
2019-02-26T13:23:17.142Z,35.40
2019-02-26T13:25:34.834Z,34.50
2019-02-26T13:28:03.261Z,33.70
2019-02-26T13:30:31.621Z,32.70
2019-02-26T13:33:04.228Z,32.00
2019-02-26T13:35:30.074Z,31.30
2019-02-26T13:38:00.012Z,30.60
2019-02-26T13:40:28.399Z,29.90
2019-02-26T13:45:27.542Z,28.90
2019-02-26T13:48:01.047Z,28.40
2019-02-26T13:50:27.748Z,28.10
2019-02-26T13:52:56.363Z,27.70
2019-02-26T13:55:24.735Z,27.30
2019-02-26T13:57:53.277Z,27.00
2019-02-26T14:00:26.347Z,26.70
2019-02-26T14:02:51.714Z,26.40
2019-02-26T14:05:20.360Z,26.00
2019-02-26T14:07:48.785Z,25.70
2019-02-26T14:10:22.319Z,25.50
2019-02-26T14:12:50.708Z,25.30
2019-02-26T14:15:20.940Z,25.10
2019-02-26T14:17:49.563Z,24.80
2019-02-26T14:20:17.930Z,24.50
2019-02-26T14:22:46.337Z,24.30
2019-02-26T14:25:14.830Z,24.10
2019-02-26T14:27:43.265Z,23.80
2019-02-26T14:30:18.761Z,23.70
2019-02-26T14:32:47.175Z,23.50
2019-02-26T14:35:15.914Z,23.40
2019-02-26T14:37:44.659Z,23.10
2019-02-26T14:40:17.813Z,22.90
2019-02-26T14:42:46.183Z,22.70
2019-02-26T14:45:19.444Z,22.50
2019-02-26T14:47:47.891Z,22.30
2019-02-26T14:50:21.165Z,22.10
2019-02-26T14:52:49.540Z,21.90
2019-02-26T14:55:18.081Z,21.70
2019-02-26T14:57:46.548Z,21.60
2019-02-26T15:00:17.992Z,21.50
2019-02-26T15:02:46.574Z,21.30
2019-02-26T15:05:15.599Z,21.30
2019-02-26T15:07:43.974Z,21.20
2019-02-26T15:10:12.682Z,21.10
2019-02-26T15:12:41.090Z,21.00
2019-02-26T15:15:18.877Z,20.80
2019-02-26T15:17:47.623Z,20.80
2019-02-26T15:20:21.030Z,20.60
2019-02-26T15:22:49.565Z,20.50
2019-02-26T15:25:21.472Z,20.40
2019-02-26T15:27:49.886Z,20.30
2019-02-26T15:30:19.722Z,20.20
2019-02-26T15:32:48.163Z,20.00
2019-02-26T15:35:16.805Z,19.90
2019-02-26T15:37:45.229Z,19.80
2019-02-26T15:40:17.327Z,19.80
2019-02-26T15:42:45.706Z,19.70
2019-02-26T15:45:25.277Z,19.70
2019-02-26T15:47:53.710Z,19.60
2019-02-26T15:50:22.349Z,19.70
2019-02-26T15:52:52.974Z,19.70
2019-02-26T15:55:25.867Z,20.10
2019-02-26T15:57:55.481Z,20.70
2019-02-26T16:00:24.642Z,21.50
2019-02-26T16:02:53.545Z,22.20
2019-02-26T16:05:24.296Z,22.10
2019-02-26T16:07:52.731Z,25.00
2019-02-26T16:10:22.211Z,28.50
2019-02-26T16:12:51.230Z,28.70
2019-02-26T16:15:19.677Z,28.20
2019-02-26T16:17:48.019Z,28.70
2019-02-26T16:20:22.158Z,29.10
2019-02-26T16:22:50.519Z,29.40
2019-02-26T16:25:18.913Z,30.00
2019-02-26T16:27:47.288Z,30.00
2019-02-26T16:30:23.696Z,30.80
2019-02-26T16:32:52.369Z,31.40
2019-02-26T16:35:24.764Z,32.10
2019-02-26T16:37:50.810Z,32.60
2019-02-26T16:40:19.222Z,33.60
2019-02-26T16:42:48.259Z,34.00
2019-02-26T16:45:21.902Z,35.40
2019-02-26T16:47:50.373Z,36.40
2019-02-26T16:50:21.301Z,37.30
2019-02-26T16:52:49.747Z,37.90
2019-02-26T16:55:18.272Z,38.80
2019-02-26T16:57:46.809Z,39.80
2019-02-26T17:00:25.704Z,41.20
2019-02-26T17:02:54.149Z,41.70
2019-02-26T17:05:22.592Z,42.20
2019-02-26T17:07:51.245Z,42.60
2019-02-26T17:10:20.675Z,43.70
2019-02-26T17:12:53.482Z,43.90
2019-02-26T17:15:32.000Z,44.70
2019-02-26T17:18:00.397Z,45.00
2019-02-26T17:20:28.793Z,45.30
2019-02-26T17:22:57.180Z,46.00
2019-02-26T17:25:28.399Z,46.20
2019-02-26T17:27:55.616Z,46.40
2019-02-26T17:30:24.675Z,46.80
2019-02-26T17:32:53.275Z,47.30
2019-02-26T17:35:21.649Z,47.50
2019-02-26T17:37:50.101Z,47.80
2019-02-26T17:40:23.604Z,48.00
2019-02-26T17:42:52.289Z,48.20
2019-02-26T17:45:27.857Z,48.80
2019-02-26T17:47:57.404Z,49.30
2019-02-26T17:50:28.486Z,49.50
2019-02-26T17:52:56.856Z,49.80
2019-02-26T17:55:25.439Z,50.70
2019-02-26T17:57:53.951Z,50.50
2019-02-26T18:00:24.930Z,50.90
2019-02-26T18:02:53.312Z,51.00
2019-02-26T18:05:21.725Z,51.10
2019-02-26T18:07:50.108Z,51.20
2019-02-26T18:10:23.885Z,51.30
2019-02-26T18:12:53.935Z,51.60
2019-02-26T18:15:22.807Z,51.60
2019-02-26T18:17:51.192Z,51.80
2019-02-26T18:20:21.624Z,52.10
2019-02-26T18:22:51.395Z,52.20
2019-02-26T18:25:23.498Z,52.60
2019-02-26T18:27:51.841Z,52.90
2019-02-26T18:30:24.495Z,53.20
2019-02-26T18:32:55.684Z,53.50
2019-02-26T18:35:23.012Z,53.70
2019-02-26T18:37:51.440Z,54.30
2019-02-26T18:40:19.888Z,54.50
2019-02-26T18:42:48.635Z,54.90
2019-02-26T18:45:28.716Z,54.80
2019-02-26T18:47:57.469Z,54.90
2019-02-26T18:50:28.453Z,55.00
2019-02-26T18:52:58.171Z,55.40
2019-02-26T18:55:28.329Z,55.80
2019-02-26T18:57:57.159Z,55.50
2019-02-26T19:00:27.952Z,56.00
2019-02-26T19:02:56.345Z,55.80
2019-02-26T19:05:24.743Z,56.50
2019-02-26T19:07:53.113Z,56.40
2019-02-26T19:10:21.571Z,56.80
2019-02-26T19:12:49.980Z,57.00
2019-02-26T19:15:34.874Z,56.90
2019-02-26T19:18:03.472Z,57.50
2019-02-26T19:20:39.374Z,57.20
2019-02-26T19:23:07.770Z,57.30
2019-02-26T19:25:36.108Z,57.50
2019-02-26T19:28:04.599Z,57.30
2019-02-26T19:30:36.737Z,57.50
2019-02-26T19:33:03.589Z,57.60
2019-02-26T19:35:34.796Z,58.00
2019-02-26T19:38:03.616Z,58.30
2019-02-26T19:40:40.660Z,58.70
2019-02-26T19:43:09.985Z,59.20
2019-02-26T19:45:38.386Z,59.30
2019-02-26T19:48:06.810Z,59.50
2019-02-26T19:50:35.215Z,59.40
2019-02-26T19:53:03.647Z,59.50
2019-02-26T19:55:34.671Z,59.80
2019-02-26T19:58:06.542Z,59.90
2019-02-26T20:00:33.211Z,60.00
2019-02-26T20:03:04.791Z,60.20
2019-02-26T20:05:31.646Z,60.10
2019-02-26T20:08:04.782Z,60.90
2019-02-26T20:10:30.430Z,61.30
2019-02-26T20:13:00.805Z,61.20
2019-02-26T20:15:30.389Z,61.10
2019-02-26T20:17:59.324Z,60.80
2019-02-26T20:20:28.013Z,60.90
2019-02-26T20:22:56.409Z,60.80
2019-02-26T20:25:25.081Z,61.70
2019-02-26T20:27:54.858Z,61.20
2019-02-26T20:30:27.128Z,61.90
2019-02-26T20:32:55.563Z,62.30
2019-02-26T20:35:24.000Z,62.50
2019-02-26T20:37:52.390Z,62.00
2019-02-26T20:40:22.995Z,62.10
2019-02-26T20:42:51.357Z,62.40
2019-02-26T20:45:22.548Z,62.40
2019-02-26T20:47:51.730Z,62.80
2019-02-26T20:50:21.425Z,63.40
2019-02-26T20:52:51.579Z,63.60
2019-02-26T20:55:31.139Z,64.20
2019-02-26T20:57:59.541Z,63.50
2019-02-26T21:00:27.936Z,63.50
2019-02-26T21:02:56.329Z,63.80
2019-02-26T21:05:25.174Z,64.20
2019-02-26T21:07:58.093Z,63.90
2019-02-26T21:10:23.680Z,65.30
2019-02-26T21:12:52.086Z,64.60
2019-02-26T21:15:24.659Z,64.70
2019-02-26T21:17:53.054Z,64.90
2019-02-26T21:20:21.766Z,64.70
2019-02-26T21:22:50.144Z,65.30
2019-02-26T21:25:18.547Z,65.00
2019-02-26T21:27:46.939Z,65.10
2019-02-26T21:30:19.842Z,65.50
2019-02-26T21:32:48.231Z,65.20
2019-02-26T21:35:19.900Z,65.30
2019-02-26T21:37:48.298Z,65.80
2019-02-26T21:40:17.013Z,65.80
2019-02-26T21:42:45.414Z,66.00
2019-02-26T21:45:16.183Z,66.20
2019-02-26T21:47:44.787Z,66.20
2019-02-26T21:50:16.206Z,66.90
2019-02-26T21:52:59.026Z,66.60
2019-02-26T21:55:17.628Z,67.50
2019-02-26T21:57:46.016Z,67.30
2019-02-26T22:00:20.259Z,67.20
2019-02-26T22:02:51.961Z,67.80
2019-02-26T22:05:18.832Z,67.50
2019-02-26T22:07:47.245Z,68.40
2019-02-26T22:10:18.035Z,67.60
2019-02-26T22:12:46.452Z,68.10
2019-02-26T22:15:15.968Z,69.00
2019-02-26T22:17:44.433Z,69.40
2019-02-26T22:20:22.009Z,69.50
2019-02-26T22:22:45.459Z,69.30
2019-02-26T22:25:17.013Z,69.00
2019-02-26T22:27:43.997Z,70.00
2019-02-26T22:30:15.660Z,69.40
2019-02-26T22:32:44.080Z,69.00
2019-02-26T22:35:12.450Z,69.40
2019-02-26T22:37:41.480Z,69.30
2019-02-26T22:40:14.307Z,69.50
2019-02-26T22:42:42.729Z,69.30
2019-02-26T22:45:12.774Z,69.70
2019-02-26T22:47:41.554Z,69.40
2019-02-26T22:50:16.426Z,69.50
2019-02-26T22:52:44.841Z,69.70
2019-02-26T22:55:16.620Z,69.50
2019-02-26T22:57:44.121Z,69.80
2019-02-26T23:00:48.374Z,70.10
2019-02-26T23:03:14.287Z,69.90
2019-02-26T23:05:42.690Z,71.20
2019-02-26T23:08:11.861Z,70.60
2019-02-26T23:10:40.796Z,70.40
2019-02-26T23:13:09.267Z,71.40
2019-02-26T23:15:37.735Z,70.90
2019-02-26T23:18:06.212Z,70.90
2019-02-26T23:20:34.662Z,71.20
2019-02-26T23:23:03.052Z,72.10
2019-02-26T23:25:33.673Z,71.40
2019-02-26T23:28:01.481Z,72.00
2019-02-26T23:30:30.172Z,71.20
2019-02-26T23:32:58.581Z,71.40
2019-02-26T23:35:26.983Z,72.60
2019-02-26T23:37:55.372Z,72.10
2019-02-26T23:40:24.882Z,71.80
2019-02-26T23:42:54.075Z,72.10
2019-02-26T23:45:24.234Z,72.30
2019-02-26T23:47:52.521Z,72.40
2019-02-26T23:50:20.950Z,71.90
2019-02-26T23:52:49.349Z,72.10
2019-02-26T23:55:18.032Z,72.80
2019-02-26T23:57:46.690Z,73.00
